sensor_id;sensor_type;location;lat;lon;timestamp;temperature;humidity
19279;DHT22;9773;47.062;15.446;2023-04-25T00:01:48;10.50;99.90
19279;DHT22;9773;47.062;15.446;2023-04-25T00:04:14;10.60;99.90
19279;DHT22;9773;47.062;15.446;2023-04-25T00:06:39;10.50;99.90
19279;DHT22;9773;47.062;15.446;2023-04-25T00:09:06;10.50;99.90
19279;DHT22;9773;47.062;15.446;2023-04-25T00:11:36;10.50;99.90
19279;DHT22;9773;47.062;15.446;2023-04-25T00:14:03;10.50;99.90
19279;DHT22;9773;47.062;15.446;2023-04-25T00:16:30;10.50;99.90
19279;DHT22;9773;47.062;15.446;2023-04-25T00:18:59;10.50;99.90
19279;DHT22;9773;47.062;15.446;2023-04-25T00:21:25;10.60;99.90
19279;DHT22;9773;47.062;15.446;2023-04-25T00:23:52;10.60;99.90
19279;DHT22;9773;47.062;15.446;2023-04-25T00:26:18;10.60;99.90
19279;DHT22;9773;47.062;15.446;2023-04-25T00:28:44;10.60;99.90
19279;DHT22;9773;47.062;15.446;2023-04-25T00:31:10;10.60;99.90
19279;DHT22;9773;47.062;15.446;2023-04-25T00:33:36;10.50;99.90
19279;DHT22;9773;47.062;15.446;2023-04-25T00:36:02;10.50;99.90
19279;DHT22;9773;47.062;15.446;2023-04-25T00:38:28;10.50;99.90
19279;DHT22;9773;47.062;15.446;2023-04-25T00:40:53;10.50;99.90
19279;DHT22;9773;47.062;15.446;2023-04-25T00:43:21;10.50;99.90
19279;DHT22;9773;47.062;15.446;2023-04-25T00:45:47;10.50;99.90
19279;DHT22;9773;47.062;15.446;2023-04-25T00:48:14;10.40;99.90
19279;DHT22;9773;47.062;15.446;2023-04-25T00:50:40;10.40;99.90
19279;DHT22;9773;47.062;15.446;2023-04-25T00:53:06;10.40;99.90
19279;DHT22;9773;47.062;15.446;2023-04-25T00:55:33;10.40;99.90
19279;DHT22;9773;47.062;15.446;2023-04-25T00:58:00;10.30;99.90
19279;DHT22;9773;47.062;15.446;2023-04-25T01:00:26;10.10;99.90
19279;DHT22;9773;47.062;15.446;2023-04-25T01:02:52;10.20;99.90
19279;DHT22;9773;47.062;15.446;2023-04-25T01:05:18;10.20;99.90
19279;DHT22;9773;47.062;15.446;2023-04-25T01:07:44;10.10;99.90
19279;DHT22;9773;47.062;15.446;2023-04-25T01:10:11;10.10;99.90
19279;DHT22;9773;47.062;15.446;2023-04-25T01:12:37;10.10;99.90
19279;DHT22;9773;47.062;15.446;2023-04-25T01:15:03;10.10;99.90
19279;DHT22;9773;47.062;15.446;2023-04-25T01:17:29;10.10;99.90
19279;DHT22;9773;47.062;15.446;2023-04-25T01:19:55;10.10;99.90
19279;DHT22;9773;47.062;15.446;2023-04-25T01:22:21;10.00;99.90
19279;DHT22;9773;47.062;15.446;2023-04-25T01:24:47;10.00;99.90
19279;DHT22;9773;47.062;15.446;2023-04-25T01:27:13;9.90;99.90
19279;DHT22;9773;47.062;15.446;2023-04-25T01:29:39;9.90;99.90
19279;DHT22;9773;47.062;15.446;2023-04-25T01:32:05;9.90;99.90
19279;DHT22;9773;47.062;15.446;2023-04-25T01:34:31;9.80;99.90
19279;DHT22;9773;47.062;15.446;2023-04-25T01:36:59;9.80;99.90
19279;DHT22;9773;47.062;15.446;2023-04-25T01:39:25;9.80;99.90
19279;DHT22;9773;47.062;15.446;2023-04-25T01:41:51;9.80;99.90
19279;DHT22;9773;47.062;15.446;2023-04-25T01:44:17;9.70;99.90
19279;DHT22;9773;47.062;15.446;2023-04-25T01:46:42;9.70;99.90
19279;DHT22;9773;47.062;15.446;2023-04-25T01:49:08;9.70;99.90
19279;DHT22;9773;47.062;15.446;2023-04-25T01:51:34;9.70;99.90
19279;DHT22;9773;47.062;15.446;2023-04-25T01:54:00;9.60;99.90
19279;DHT22;9773;47.062;15.446;2023-04-25T01:56:33;9.50;99.90
19279;DHT22;9773;47.062;15.446;2023-04-25T01:59:02;9.40;99.90
19279;DHT22;9773;47.062;15.446;2023-04-25T02:01:28;9.40;99.90
19279;DHT22;9773;47.062;15.446;2023-04-25T02:03:54;9.40;99.90
19279;DHT22;9773;47.062;15.446;2023-04-25T02:06:20;9.40;99.90
19279;DHT22;9773;47.062;15.446;2023-04-25T02:08:45;9.30;99.90
19279;DHT22;9773;47.062;15.446;2023-04-25T02:11:11;9.30;99.90
19279;DHT22;9773;47.062;15.446;2023-04-25T02:13:37;9.30;99.90
19279;DHT22;9773;47.062;15.446;2023-04-25T02:16:03;9.30;99.90
19279;DHT22;9773;47.062;15.446;2023-04-25T02:18:29;9.10;99.90
19279;DHT22;9773;47.062;15.446;2023-04-25T02:20:54;9.10;99.90
19279;DHT22;9773;47.062;15.446;2023-04-25T02:23:20;9.10;99.90
19279;DHT22;9773;47.062;15.446;2023-04-25T02:25:46;9.00;99.90
19279;DHT22;9773;47.062;15.446;2023-04-25T02:28:12;9.00;99.90
19279;DHT22;9773;47.062;15.446;2023-04-25T02:30:37;9.00;99.90
19279;DHT22;9773;47.062;15.446;2023-04-25T02:33:03;9.00;99.90
19279;DHT22;9773;47.062;15.446;2023-04-25T02:35:29;9.00;99.90
19279;DHT22;9773;47.062;15.446;2023-04-25T02:37:55;8.90;99.90
19279;DHT22;9773;47.062;15.446;2023-04-25T02:40:20;8.90;99.90
19279;DHT22;9773;47.062;15.446;2023-04-25T02:42:46;8.80;99.90
19279;DHT22;9773;47.062;15.446;2023-04-25T02:45:12;8.80;99.90
19279;DHT22;9773;47.062;15.446;2023-04-25T02:47:38;8.80;99.90
19279;DHT22;9773;47.062;15.446;2023-04-25T02:50:04;8.80;99.90
19279;DHT22;9773;47.062;15.446;2023-04-25T02:52:30;8.70;99.90
19279;DHT22;9773;47.062;15.446;2023-04-25T02:54:55;8.60;99.90
19279;DHT22;9773;47.062;15.446;2023-04-25T02:57:21;8.60;99.90
19279;DHT22;9773;47.062;15.446;2023-04-25T02:59:47;8.60;99.90
19279;DHT22;9773;47.062;15.446;2023-04-25T03:02:13;8.60;99.90
19279;DHT22;9773;47.062;15.446;2023-04-25T03:04:39;8.60;99.90
19279;DHT22;9773;47.062;15.446;2023-04-25T03:07:05;8.60;99.90
19279;DHT22;9773;47.062;15.446;2023-04-25T03:09:31;8.60;99.90
19279;DHT22;9773;47.062;15.446;2023-04-25T03:11:57;8.50;99.90
19279;DHT22;9773;47.062;15.446;2023-04-25T03:14:22;8.50;99.90
19279;DHT22;9773;47.062;15.446;2023-04-25T03:16:48;8.50;99.90
19279;DHT22;9773;47.062;15.446;2023-04-25T03:19:14;8.50;99.90
19279;DHT22;9773;47.062;15.446;2023-04-25T03:21:41;8.50;99.90
19279;DHT22;9773;47.062;15.446;2023-04-25T03:24:07;8.50;99.90
19279;DHT22;9773;47.062;15.446;2023-04-25T03:26:32;8.60;99.90
19279;DHT22;9773;47.062;15.446;2023-04-25T03:28:58;8.60;99.90
19279;DHT22;9773;47.062;15.446;2023-04-25T03:31:24;8.60;99.90
19279;DHT22;9773;47.062;15.446;2023-04-25T03:33:50;8.70;99.90
19279;DHT22;9773;47.062;15.446;2023-04-25T03:36:16;8.80;99.90
19279;DHT22;9773;47.062;15.446;2023-04-25T03:38:41;8.80;99.90
19279;DHT22;9773;47.062;15.446;2023-04-25T03:41:07;8.80;99.90
19279;DHT22;9773;47.062;15.446;2023-04-25T03:43:33;8.90;99.90
19279;DHT22;9773;47.062;15.446;2023-04-25T03:45:59;8.90;99.90
19279;DHT22;9773;47.062;15.446;2023-04-25T03:48:26;9.00;99.90
19279;DHT22;9773;47.062;15.446;2023-04-25T03:50:53;9.00;99.90
19279;DHT22;9773;47.062;15.446;2023-04-25T03:53:18;9.00;99.90
19279;DHT22;9773;47.062;15.446;2023-04-25T03:55:45;9.10;99.90
19279;DHT22;9773;47.062;15.446;2023-04-25T03:58:10;9.10;99.90
19279;DHT22;9773;47.062;15.446;2023-04-25T04:00:36;9.00;99.90
19279;DHT22;9773;47.062;15.446;2023-04-25T04:03:02;8.80;99.90
19279;DHT22;9773;47.062;15.446;2023-04-25T04:05:28;8.70;99.90
19279;DHT22;9773;47.062;15.446;2023-04-25T04:07:54;8.60;99.90
19279;DHT22;9773;47.062;15.446;2023-04-25T04:10:20;8.60;99.90
19279;DHT22;9773;47.062;15.446;2023-04-25T04:12:46;8.50;99.90
19279;DHT22;9773;47.062;15.446;2023-04-25T04:15:12;8.40;99.90
19279;DHT22;9773;47.062;15.446;2023-04-25T04:17:38;8.40;99.90
19279;DHT22;9773;47.062;15.446;2023-04-25T04:20:04;8.50;99.90
19279;DHT22;9773;47.062;15.446;2023-04-25T04:22:31;8.50;99.90
19279;DHT22;9773;47.062;15.446;2023-04-25T04:24:57;8.50;99.90
19279;DHT22;9773;47.062;15.446;2023-04-25T04:27:23;8.40;99.90
19279;DHT22;9773;47.062;15.446;2023-04-25T04:29:49;8.30;99.90
19279;DHT22;9773;47.062;15.446;2023-04-25T04:32:16;8.30;99.90
19279;DHT22;9773;47.062;15.446;2023-04-25T04:34:42;8.30;99.90
19279;DHT22;9773;47.062;15.446;2023-04-25T04:37:08;8.20;99.90
19279;DHT22;9773;47.062;15.446;2023-04-25T04:39:36;8.20;99.90
19279;DHT22;9773;47.062;15.446;2023-04-25T04:42:02;8.30;99.90
19279;DHT22;9773;47.062;15.446;2023-04-25T04:44:29;8.30;99.90
19279;DHT22;9773;47.062;15.446;2023-04-25T04:46:58;8.50;99.90
19279;DHT22;9773;47.062;15.446;2023-04-25T04:49:24;8.60;99.90
19279;DHT22;9773;47.062;15.446;2023-04-25T04:51:49;8.50;99.90
19279;DHT22;9773;47.062;15.446;2023-04-25T04:54:15;8.50;99.90
19279;DHT22;9773;47.062;15.446;2023-04-25T04:56:41;8.60;99.90
19279;DHT22;9773;47.062;15.446;2023-04-25T04:59:07;8.70;99.90
19279;DHT22;9773;47.062;15.446;2023-04-25T05:01:33;8.80;99.90
19279;DHT22;9773;47.062;15.446;2023-04-25T05:04:01;8.80;99.90
19279;DHT22;9773;47.062;15.446;2023-04-25T05:06:28;8.80;99.90
19279;DHT22;9773;47.062;15.446;2023-04-25T05:08:57;8.80;99.90
19279;DHT22;9773;47.062;15.446;2023-04-25T05:11:24;8.80;99.90
19279;DHT22;9773;47.062;15.446;2023-04-25T05:13:53;8.80;99.90
19279;DHT22;9773;47.062;15.446;2023-04-25T05:16:19;8.70;99.90
19279;DHT22;9773;47.062;15.446;2023-04-25T05:18:46;8.70;99.90
19279;DHT22;9773;47.062;15.446;2023-04-25T05:21:12;8.70;99.90
19279;DHT22;9773;47.062;15.446;2023-04-25T05:23:37;8.70;99.90
19279;DHT22;9773;47.062;15.446;2023-04-25T05:26:03;8.70;99.90
19279;DHT22;9773;47.062;15.446;2023-04-25T05:28:29;8.60;99.90
19279;DHT22;9773;47.062;15.446;2023-04-25T05:30:55;8.70;99.90
19279;DHT22;9773;47.062;15.446;2023-04-25T05:33:20;8.70;99.90
19279;DHT22;9773;47.062;15.446;2023-04-25T05:35:46;8.80;99.90
19279;DHT22;9773;47.062;15.446;2023-04-25T05:38:12;8.80;99.90
19279;DHT22;9773;47.062;15.446;2023-04-25T05:40:38;8.90;99.90
19279;DHT22;9773;47.062;15.446;2023-04-25T05:43:04;9.00;99.90
19279;DHT22;9773;47.062;15.446;2023-04-25T05:45:30;9.00;99.90
19279;DHT22;9773;47.062;15.446;2023-04-25T05:47:55;9.10;99.90
19279;DHT22;9773;47.062;15.446;2023-04-25T05:50:21;9.10;99.90
19279;DHT22;9773;47.062;15.446;2023-04-25T05:52:47;9.10;99.90
19279;DHT22;9773;47.062;15.446;2023-04-25T05:55:13;9.20;99.90
19279;DHT22;9773;47.062;15.446;2023-04-25T05:57:39;9.40;99.90
19279;DHT22;9773;47.062;15.446;2023-04-25T06:00:08;9.50;99.90
19279;DHT22;9773;47.062;15.446;2023-04-25T06:02:35;9.60;99.90
19279;DHT22;9773;47.062;15.446;2023-04-25T06:05:01;9.70;99.90
19279;DHT22;9773;47.062;15.446;2023-04-25T06:07:29;9.70;99.90
19279;DHT22;9773;47.062;15.446;2023-04-25T06:09:58;9.70;99.90
19279;DHT22;9773;47.062;15.446;2023-04-25T06:12:24;9.80;99.90
19279;DHT22;9773;47.062;15.446;2023-04-25T06:14:50;9.90;99.90
19279;DHT22;9773;47.062;15.446;2023-04-25T06:17:16;9.90;99.90
19279;DHT22;9773;47.062;15.446;2023-04-25T06:19:42;10.00;99.90
19279;DHT22;9773;47.062;15.446;2023-04-25T06:22:07;10.10;99.90
19279;DHT22;9773;47.062;15.446;2023-04-25T06:24:33;10.10;99.90
19279;DHT22;9773;47.062;15.446;2023-04-25T06:26:59;10.10;99.90
19279;DHT22;9773;47.062;15.446;2023-04-25T06:29:25;10.20;99.90
19279;DHT22;9773;47.062;15.446;2023-04-25T06:31:51;10.30;99.90
19279;DHT22;9773;47.062;15.446;2023-04-25T06:34:17;10.30;99.90
19279;DHT22;9773;47.062;15.446;2023-04-25T06:36:43;10.40;99.90
19279;DHT22;9773;47.062;15.446;2023-04-25T06:39:10;10.60;99.90
19279;DHT22;9773;47.062;15.446;2023-04-25T06:41:36;10.60;99.90
19279;DHT22;9773;47.062;15.446;2023-04-25T06:44:02;10.70;99.90
19279;DHT22;9773;47.062;15.446;2023-04-25T06:46:28;10.70;99.90
19279;DHT22;9773;47.062;15.446;2023-04-25T06:48:53;10.80;99.90
19279;DHT22;9773;47.062;15.446;2023-04-25T06:51:19;10.80;99.90
19279;DHT22;9773;47.062;15.446;2023-04-25T06:53:45;10.90;99.90
19279;DHT22;9773;47.062;15.446;2023-04-25T06:56:11;10.90;99.90
19279;DHT22;9773;47.062;15.446;2023-04-25T06:58:36;11.00;99.90
19279;DHT22;9773;47.062;15.446;2023-04-25T07:01:02;11.00;99.90
19279;DHT22;9773;47.062;15.446;2023-04-25T07:03:28;11.20;99.90
19279;DHT22;9773;47.062;15.446;2023-04-25T07:05:54;11.30;99.90
19279;DHT22;9773;47.062;15.446;2023-04-25T07:08:20;11.40;99.90
19279;DHT22;9773;47.062;15.446;2023-04-25T07:10:47;11.50;99.90
19279;DHT22;9773;47.062;15.446;2023-04-25T07:13:13;11.60;99.90
19279;DHT22;9773;47.062;15.446;2023-04-25T07:15:38;11.60;99.90
19279;DHT22;9773;47.062;15.446;2023-04-25T07:18:04;11.70;99.90
19279;DHT22;9773;47.062;15.446;2023-04-25T07:20:30;11.80;99.90
19279;DHT22;9773;47.062;15.446;2023-04-25T07:22:56;11.90;99.90
19279;DHT22;9773;47.062;15.446;2023-04-25T07:25:22;11.90;99.90
19279;DHT22;9773;47.062;15.446;2023-04-25T07:27:48;12.10;99.90
19279;DHT22;9773;47.062;15.446;2023-04-25T07:30:14;12.20;99.90
19279;DHT22;9773;47.062;15.446;2023-04-25T07:32:40;12.30;99.90
19279;DHT22;9773;47.062;15.446;2023-04-25T07:35:06;12.30;99.90
19279;DHT22;9773;47.062;15.446;2023-04-25T07:37:36;12.30;99.90
19279;DHT22;9773;47.062;15.446;2023-04-25T07:40:03;12.50;99.90
19279;DHT22;9773;47.062;15.446;2023-04-25T07:42:29;12.60;99.90
19279;DHT22;9773;47.062;15.446;2023-04-25T07:44:55;12.60;99.90
19279;DHT22;9773;47.062;15.446;2023-04-25T07:47:21;12.70;99.90
19279;DHT22;9773;47.062;15.446;2023-04-25T07:49:48;12.90;99.90
19279;DHT22;9773;47.062;15.446;2023-04-25T07:52:14;13.00;99.90
19279;DHT22;9773;47.062;15.446;2023-04-25T07:54:39;13.10;99.90
19279;DHT22;9773;47.062;15.446;2023-04-25T07:57:05;13.20;99.90
19279;DHT22;9773;47.062;15.446;2023-04-25T07:59:34;13.20;99.90
19279;DHT22;9773;47.062;15.446;2023-04-25T08:02:00;13.30;99.60
19279;DHT22;9773;47.062;15.446;2023-04-25T08:04:26;13.60;99.60
19279;DHT22;9773;47.062;15.446;2023-04-25T08:06:52;13.80;97.50
19279;DHT22;9773;47.062;15.446;2023-04-25T08:09:19;14.00;96.40
19279;DHT22;9773;47.062;15.446;2023-04-25T08:11:45;14.20;97.90
19279;DHT22;9773;47.062;15.446;2023-04-25T08:14:12;14.30;97.30
19279;DHT22;9773;47.062;15.446;2023-04-25T08:16:38;14.50;96.10
19279;DHT22;9773;47.062;15.446;2023-04-25T08:19:03;14.90;96.00
19279;DHT22;9773;47.062;15.446;2023-04-25T08:21:30;15.10;96.00
19279;DHT22;9773;47.062;15.446;2023-04-25T08:23:57;15.30;96.20
19279;DHT22;9773;47.062;15.446;2023-04-25T08:26:24;15.50;95.80
19279;DHT22;9773;47.062;15.446;2023-04-25T08:28:50;15.60;95.60
19279;DHT22;9773;47.062;15.446;2023-04-25T08:31:16;15.60;95.50
19279;DHT22;9773;47.062;15.446;2023-04-25T08:33:42;15.60;94.80
19279;DHT22;9773;47.062;15.446;2023-04-25T08:36:08;15.70;94.90
19279;DHT22;9773;47.062;15.446;2023-04-25T08:38:34;15.90;93.60
19279;DHT22;9773;47.062;15.446;2023-04-25T08:41:00;16.10;93.50
19279;DHT22;9773;47.062;15.446;2023-04-25T08:43:29;16.20;93.20
19279;DHT22;9773;47.062;15.446;2023-04-25T08:45:59;16.10;93.70
19279;DHT22;9773;47.062;15.446;2023-04-25T08:48:29;16.00;92.70
19279;DHT22;9773;47.062;15.446;2023-04-25T08:50:57;16.10;93.40
19279;DHT22;9773;47.062;15.446;2023-04-25T08:53:31;16.30;94.10
19279;DHT22;9773;47.062;15.446;2023-04-25T08:55:58;16.40;93.30
19279;DHT22;9773;47.062;15.446;2023-04-25T08:58:24;16.30;92.20
19279;DHT22;9773;47.062;15.446;2023-04-25T09:00:51;16.40;91.60
19279;DHT22;9773;47.062;15.446;2023-04-25T09:03:18;16.40;91.20
19279;DHT22;9773;47.062;15.446;2023-04-25T09:05:44;16.50;91.50
19279;DHT22;9773;47.062;15.446;2023-04-25T09:08:10;16.40;90.20
19279;DHT22;9773;47.062;15.446;2023-04-25T09:10:37;16.60;91.60
19279;DHT22;9773;47.062;15.446;2023-04-25T09:16:03;16.70;90.20
19279;DHT22;9773;47.062;15.446;2023-04-25T09:18:33;16.70;90.70
19279;DHT22;9773;47.062;15.446;2023-04-25T09:21:10;16.80;91.30
19279;DHT22;9773;47.062;15.446;2023-04-25T09:23:46;16.80;90.90
19279;DHT22;9773;47.062;15.446;2023-04-25T09:26:16;16.80;89.90
19279;DHT22;9773;47.062;15.446;2023-04-25T09:28:43;16.70;89.40
19279;DHT22;9773;47.062;15.446;2023-04-25T09:31:10;16.80;90.60
19279;DHT22;9773;47.062;15.446;2023-04-25T09:33:40;16.90;90.00
19279;DHT22;9773;47.062;15.446;2023-04-25T09:36:08;16.90;87.60
19279;DHT22;9773;47.062;15.446;2023-04-25T09:38:41;17.00;89.00
19279;DHT22;9773;47.062;15.446;2023-04-25T09:41:08;17.10;86.60
19279;DHT22;9773;47.062;15.446;2023-04-25T09:43:35;17.10;88.10
19279;DHT22;9773;47.062;15.446;2023-04-25T09:46:01;17.10;86.50
19279;DHT22;9773;47.062;15.446;2023-04-25T09:48:28;17.30;88.20
19279;DHT22;9773;47.062;15.446;2023-04-25T09:51:11;17.30;88.80
19279;DHT22;9773;47.062;15.446;2023-04-25T09:53:41;17.40;90.10
19279;DHT22;9773;47.062;15.446;2023-04-25T09:56:08;17.50;88.50
19279;DHT22;9773;47.062;15.446;2023-04-25T09:58:37;17.60;88.20
19279;DHT22;9773;47.062;15.446;2023-04-25T10:01:05;17.50;88.00
19279;DHT22;9773;47.062;15.446;2023-04-25T10:03:32;17.60;89.50
19279;DHT22;9773;47.062;15.446;2023-04-25T10:06:03;17.60;88.70
19279;DHT22;9773;47.062;15.446;2023-04-25T10:08:33;17.90;88.00
19279;DHT22;9773;47.062;15.446;2023-04-25T10:11:01;18.10;88.50
19279;DHT22;9773;47.062;15.446;2023-04-25T10:13:29;18.30;85.00
19279;DHT22;9773;47.062;15.446;2023-04-25T10:16:00;18.20;85.70
19279;DHT22;9773;47.062;15.446;2023-04-25T10:18:27;18.10;85.80
19279;DHT22;9773;47.062;15.446;2023-04-25T10:21:00;18.10;85.40
19279;DHT22;9773;47.062;15.446;2023-04-25T10:23:27;18.20;84.60
19279;DHT22;9773;47.062;15.446;2023-04-25T10:25:54;18.20;85.40
19279;DHT22;9773;47.062;15.446;2023-04-25T10:28:20;18.30;84.90
19279;DHT22;9773;47.062;15.446;2023-04-25T10:31:03;18.20;84.40
19279;DHT22;9773;47.062;15.446;2023-04-25T10:33:37;18.30;83.50
19279;DHT22;9773;47.062;15.446;2023-04-25T10:36:19;18.40;83.20
19279;DHT22;9773;47.062;15.446;2023-04-25T10:38:47;18.40;81.40
19279;DHT22;9773;47.062;15.446;2023-04-25T10:41:14;18.50;80.70
19279;DHT22;9773;47.062;15.446;2023-04-25T10:43:44;18.50;81.80
19279;DHT22;9773;47.062;15.446;2023-04-25T10:46:17;18.30;80.20
19279;DHT22;9773;47.062;15.446;2023-04-25T10:48:49;18.20;78.80
19279;DHT22;9773;47.062;15.446;2023-04-25T10:51:20;17.90;77.80
19279;DHT22;9773;47.062;15.446;2023-04-25T10:53:56;17.90;80.50
19279;DHT22;9773;47.062;15.446;2023-04-25T10:56:25;18.00;80.40
19279;DHT22;9773;47.062;15.446;2023-04-25T10:58:51;18.10;78.40
19279;DHT22;9773;47.062;15.446;2023-04-25T11:01:21;18.10;78.10
19279;DHT22;9773;47.062;15.446;2023-04-25T11:03:57;18.20;75.70
19279;DHT22;9773;47.062;15.446;2023-04-25T11:08:57;17.90;77.50
19279;DHT22;9773;47.062;15.446;2023-04-25T20:44:01;9.50;91.40
19279;DHT22;9773;47.062;15.446;2023-04-25T20:46:27;9.80;92.10
19279;DHT22;9773;47.062;15.446;2023-04-25T20:48:54;9.90;91.20
19279;DHT22;9773;47.062;15.446;2023-04-25T20:51:21;10.00;90.80
19279;DHT22;9773;47.062;15.446;2023-04-25T20:53:47;10.00;91.20
19279;DHT22;9773;47.062;15.446;2023-04-25T20:56:13;10.10;91.60
19279;DHT22;9773;47.062;15.446;2023-04-25T20:58:39;10.10;90.80
19279;DHT22;9773;47.062;15.446;2023-04-25T21:01:05;10.10;90.80
19279;DHT22;9773;47.062;15.446;2023-04-25T21:03:33;10.20;90.70
19279;DHT22;9773;47.062;15.446;2023-04-25T21:05:59;10.10;90.60
19279;DHT22;9773;47.062;15.446;2023-04-25T21:08:26;10.10;91.30
19279;DHT22;9773;47.062;15.446;2023-04-25T21:10:52;10.10;92.00
19279;DHT22;9773;47.062;15.446;2023-04-25T21:13:18;10.00;91.90
19279;DHT22;9773;47.062;15.446;2023-04-25T21:15:44;10.00;92.60
19279;DHT22;9773;47.062;15.446;2023-04-25T21:18:09;10.00;92.20
19279;DHT22;9773;47.062;15.446;2023-04-25T21:20:35;9.90;92.30
19279;DHT22;9773;47.062;15.446;2023-04-25T21:23:01;10.00;92.00
19279;DHT22;9773;47.062;15.446;2023-04-25T21:25:28;9.90;92.70
19279;DHT22;9773;47.062;15.446;2023-04-25T21:27:56;10.00;92.50
19279;DHT22;9773;47.062;15.446;2023-04-25T21:30:23;9.90;92.80
19279;DHT22;9773;47.062;15.446;2023-04-25T21:32:50;9.90;93.70
19279;DHT22;9773;47.062;15.446;2023-04-25T21:35:17;9.90;93.50
19279;DHT22;9773;47.062;15.446;2023-04-25T21:37:44;11.20;93.80
19279;DHT22;9773;47.062;15.446;2023-04-25T21:40:11;9.70;93.40
19279;DHT22;9773;47.062;15.446;2023-04-25T21:42:37;9.80;93.50
19279;DHT22;9773;47.062;15.446;2023-04-25T21:45:05;9.80;93.90
19279;DHT22;9773;47.062;15.446;2023-04-25T21:47:32;9.80;93.10
19279;DHT22;9773;47.062;15.446;2023-04-25T21:49:58;9.80;93.10
19279;DHT22;9773;47.062;15.446;2023-04-25T21:52:25;9.80;93.60
19279;DHT22;9773;47.062;15.446;2023-04-25T21:54:52;9.80;93.70
19279;DHT22;9773;47.062;15.446;2023-04-25T21:57:18;9.70;93.60
19279;DHT22;9773;47.062;15.446;2023-04-25T21:59:43;9.70;93.80
19279;DHT22;9773;47.062;15.446;2023-04-25T22:02:10;9.60;93.80
19279;DHT22;9773;47.062;15.446;2023-04-25T22:04:36;9.60;93.90
19279;DHT22;9773;47.062;15.446;2023-04-25T22:07:02;9.50;94.30
19279;DHT22;9773;47.062;15.446;2023-04-25T22:09:28;9.50;94.30
19279;DHT22;9773;47.062;15.446;2023-04-25T22:11:54;9.60;95.10
19279;DHT22;9773;47.062;15.446;2023-04-25T22:14:21;9.50;94.40
19279;DHT22;9773;47.062;15.446;2023-04-25T22:16:47;9.50;94.80
19279;DHT22;9773;47.062;15.446;2023-04-25T22:19:21;9.40;94.80
19279;DHT22;9773;47.062;15.446;2023-04-25T22:21:47;9.40;94.70
19279;DHT22;9773;47.062;15.446;2023-04-25T22:24:14;9.40;95.20
19279;DHT22;9773;47.062;15.446;2023-04-25T22:26:41;9.40;94.50
19279;DHT22;9773;47.062;15.446;2023-04-25T22:29:08;9.30;94.90
19279;DHT22;9773;47.062;15.446;2023-04-25T22:31:33;9.30;95.10
19279;DHT22;9773;47.062;15.446;2023-04-25T22:33:59;9.30;95.00
19279;DHT22;9773;47.062;15.446;2023-04-25T22:36:25;9.30;94.90
19279;DHT22;9773;47.062;15.446;2023-04-25T22:38:52;9.30;95.50
19279;DHT22;9773;47.062;15.446;2023-04-25T22:41:19;9.20;95.60
19279;DHT22;9773;47.062;15.446;2023-04-25T22:43:45;9.20;95.00
19279;DHT22;9773;47.062;15.446;2023-04-25T22:48:42;9.10;94.60
19279;DHT22;9773;47.062;15.446;2023-04-25T22:51:08;9.10;94.80
19279;DHT22;9773;47.062;15.446;2023-04-25T22:53:34;9.10;94.90
19279;DHT22;9773;47.062;15.446;2023-04-25T22:56:04;9.10;94.80
19279;DHT22;9773;47.062;15.446;2023-04-25T22:58:30;9.10;95.20
19279;DHT22;9773;47.062;15.446;2023-04-25T23:00:56;9.10;95.30
19279;DHT22;9773;47.062;15.446;2023-04-25T23:03:21;9.00;95.80
19279;DHT22;9773;47.062;15.446;2023-04-25T23:05:47;9.00;95.60
19279;DHT22;9773;47.062;15.446;2023-04-25T23:08:13;9.00;95.40
19279;DHT22;9773;47.062;15.446;2023-04-25T23:10:43;9.00;95.50
19279;DHT22;9773;47.062;15.446;2023-04-25T23:13:09;9.00;95.80
19279;DHT22;9773;47.062;15.446;2023-04-25T23:15:35;9.00;96.30
19279;DHT22;9773;47.062;15.446;2023-04-25T23:18:01;8.90;95.60
19279;DHT22;9773;47.062;15.446;2023-04-25T23:20:28;8.90;95.80
19279;DHT22;9773;47.062;15.446;2023-04-25T23:22:54;8.90;96.00
19279;DHT22;9773;47.062;15.446;2023-04-25T23:25:20;8.90;96.00
19279;DHT22;9773;47.062;15.446;2023-04-25T23:27:46;8.80;96.10
19279;DHT22;9773;47.062;15.446;2023-04-25T23:30:13;8.80;96.90
19279;DHT22;9773;47.062;15.446;2023-04-25T23:32:39;8.80;96.90
19279;DHT22;9773;47.062;15.446;2023-04-25T23:35:05;8.80;97.00
19279;DHT22;9773;47.062;15.446;2023-04-25T23:37:38;8.80;97.00
19279;DHT22;9773;47.062;15.446;2023-04-25T23:40:08;8.80;97.30
19279;DHT22;9773;47.062;15.446;2023-04-25T23:42:37;8.80;97.30
19279;DHT22;9773;47.062;15.446;2023-04-25T23:45:04;8.80;97.20
19279;DHT22;9773;47.062;15.446;2023-04-25T23:47:31;8.70;97.10
19279;DHT22;9773;47.062;15.446;2023-04-25T23:49:57;8.70;96.90
19279;DHT22;9773;47.062;15.446;2023-04-25T23:52:22;8.70;97.20
19279;DHT22;9773;47.062;15.446;2023-04-25T23:54:48;8.70;97.10
19279;DHT22;9773;47.062;15.446;2023-04-25T23:57:14;8.60;97.40
19279;DHT22;9773;47.062;15.446;2023-04-25T23:59:44;8.50;97.70
